Time;durP1;ratioP1;P1;durP2;ratioP2;P2;SDS_P1;SDS_P2;PMS_P1;PMS_P2;Temp;Humidity;BMP_temperature;BMP_pressure;BME280_temperature;BME280_humidity;BME280_pressure;Samples;Min_cycle;Max_cycle;Signal;HPM_P1;HPM_P2
2021/12/11 00:02:20;;;;;;;0.30;0.20;;;;;;;5.77;100.00;94768.31;5111439;28;20558;-52
2021/12/11 00:04:51;;;;;;;0.73;0.70;;;;;;;5.76;100.00;94768.56;5112213;28;20770;-52
2021/12/11 00:07:21;;;;;;;0.30;0.20;;;;;;;5.16;100.00;94692.69;5111448;28;20484;-52
2021/12/11 00:09:55;;;;;;;0.30;0.20;;;;;;;5.79;100.00;94771.47;5111486;28;20448;-52
2021/12/11 00:12:28;;;;;;;1.17;1.07;;;;;;;5.90;100.00;94761.84;5111506;28;20446;-52
2021/12/11 00:15:09;;;;;;;1.40;0.60;;;;;;;5.90;100.00;94759.22;5111570;28;20566;-52
2021/12/11 00:17:38;;;;;;;2.00;1.60;;;;;;;5.81;100.00;94762.53;5112193;28;20458;-52
2021/12/11 00:20:14;;;;;;;0.40;0.30;;;;;;;5.80;100.00;94759.13;5111938;28;20427;-52
2021/12/11 00:22:43;;;;;;;0.30;0.20;;;;;;;6.01;100.00;94752.19;5113810;28;20462;-52
2021/12/11 00:25:16;;;;;;;0.30;0.30;;;;;;;6.07;100.00;94748.56;5115842;28;20514;-52
2021/12/11 00:27:48;;;;;;;0.40;0.30;;;;;;;5.94;100.00;94751.63;5114511;27;20891;-52
2021/12/11 00:30:24;;;;;;;0.30;0.20;;;;;;;5.77;100.00;94749.09;5115480;28;20471;-52
2021/12/11 00:32:59;;;;;;;0.50;0.47;;;;;;;5.94;100.00;94752.41;5115343;28;20422;-52
2021/12/11 00:35:29;;;;;;;1.90;1.80;;;;;;;5.47;100.00;94693.69;5115420;28;20455;-52
2021/12/11 00:38:03;;;;;;;1.57;1.57;;;;;;;5.67;100.00;94720.09;5114874;28;20453;-52
2021/12/11 00:40:34;;;;;;;0.40;0.30;;;;;;;5.47;100.00;94749.69;5115435;28;20439;-52
2021/12/11 00:43:06;;;;;;;0.30;0.20;;;;;;;5.70;100.00;94761.69;5115525;28;20493;-52
2021/12/11 00:45:38;;;;;;;0.30;0.20;;;;;;;5.02;100.00;94660.00;5115547;28;20510;-52
2021/12/11 00:48:12;;;;;;;0.60;0.60;;;;;;;5.82;100.00;94733.34;5115578;28;20436;-52
2021/12/11 00:50:44;;;;;;;0.30;0.20;;;;;;;5.94;100.00;94738.47;5115343;27;20518;-52
2021/12/11 00:53:17;;;;;;;1.40;1.30;;;;;;;5.43;100.00;94743.34;5115054;28;20810;-52
2021/12/11 00:55:51;;;;;;;0.67;0.67;;;;;;;5.60;100.00;94745.81;5115214;28;20427;-52
2021/12/11 00:58:23;;;;;;;0.30;0.20;;;;;;;5.65;100.00;94746.66;5115256;28;20507;-52
2021/12/11 01:00:56;;;;;;;0.30;0.20;;;;;;;5.72;100.00;94762.22;5114793;28;20432;-52
2021/12/11 01:03:29;;;;;;;0.30;0.20;;;;;;;5.61;100.00;94757.94;5114562;28;20496;-52
2021/12/11 01:06:00;;;;;;;0.30;0.20;;;;;;;5.57;100.00;94762.91;5114889;28;20544;-52
2021/12/11 01:08:32;;;;;;;0.63;0.30;;;;;;;5.69;100.00;94765.38;5114737;28;20467;-52
2021/12/11 01:11:09;;;;;;;0.30;0.20;;;;;;;5.53;100.00;94776.78;5115018;28;20439;-52
2021/12/11 01:13:43;;;;;;;0.47;0.47;;;;;;;5.64;100.00;94770.59;5114765;28;20935;-52
2021/12/11 01:16:14;;;;;;;0.30;0.20;;;;;;;4.65;100.00;94610.06;5114582;28;20448;-52
2021/12/11 01:18:49;;;;;;;0.30;0.30;;;;;;;4.99;100.00;94779.44;5114943;28;20438;-52
2021/12/11 01:21:42;;;;;;;0.87;0.87;;;;;;;5.04;100.00;94787.38;5114321;27;20494;-52
2021/12/11 01:24:27;;;;;;;0.30;0.30;;;;;;;5.42;100.00;94775.91;5113769;28;20432;-52
2021/12/11 01:26:59;;;;;;;0.30;0.20;;;;;;;5.24;100.00;94772.88;5114359;28;20445;-52
2021/12/11 01:29:30;;;;;;;0.40;0.30;;;;;;;5.38;100.00;94768.78;5113850;28;20458;-52
2021/12/11 01:31:59;;;;;;;1.10;1.07;;;;;;;5.38;100.00;94768.78;5114211;28;20459;-53
2021/12/11 01:34:30;;;;;;;1.60;0.43;;;;;;;4.82;100.00;94791.06;5113025;28;20435;-52
2021/12/11 01:36:59;;;;;;;0.73;0.73;;;;;;;4.98;100.00;94798.84;5113211;28;20518;-52
2021/12/11 01:39:31;;;;;;;1.13;1.03;;;;;;;4.42;100.00;94731.84;5114303;28;20514;-52
2021/12/11 01:42:07;;;;;;;2.60;2.50;;;;;;;4.93;100.00;94787.53;5113736;28;20510;-52
2021/12/11 01:44:38;;;;;;;0.30;0.30;;;;;;;5.13;100.00;94788.50;5114411;28;20526;-53
2021/12/11 01:47:10;;;;;;;0.83;0.83;;;;;;;5.12;100.00;94796.66;5114137;28;20424;-52
2021/12/11 01:49:40;;;;;;;0.60;0.60;;;;;;;4.98;100.00;94798.09;5113737;28;20458;-52
2021/12/11 01:52:13;;;;;;;0.87;0.87;;;;;;;5.30;100.00;94788.41;5113897;28;20428;-52
2021/12/11 01:54:45;;;;;;;0.30;0.20;;;;;;;5.29;100.00;94786.81;5114278;28;20511;-52
2021/12/11 01:57:21;;;;;;;0.30;0.20;;;;;;;5.11;100.00;94768.78;5113796;28;20424;-52
2021/12/11 01:59:54;;;;;;;0.37;0.33;;;;;;;4.65;100.00;94740.50;5113879;28;20462;-52
2021/12/11 02:02:26;;;;;;;0.37;0.27;;;;;;;4.97;100.00;94776.28;5113633;28;20825;-53
2021/12/11 02:04:55;;;;;;;0.30;0.20;;;;;;;5.43;100.00;94774.88;5113903;28;20487;-52
2021/12/11 02:07:27;;;;;;;1.90;0.63;;;;;;;5.45;100.00;94774.63;5113939;28;20427;-52
2021/12/11 02:09:58;;;;;;;0.30;0.20;;;;;;;5.48;100.00;94768.88;5112963;28;20510;-52
2021/12/11 02:12:35;;;;;;;0.53;0.50;;;;;;;5.26;100.00;94721.66;5113529;28;20431;-53
2021/12/11 02:15:06;;;;;;;0.30;0.20;;;;;;;5.26;100.00;94766.34;5113224;28;20471;-52
2021/12/11 02:17:41;;;;;;;0.50;0.50;;;;;;;5.45;100.00;94769.38;5113404;28;20431;-52
2021/12/11 02:20:13;;;;;;;0.30;0.20;;;;;;;5.42;100.00;94756.72;5113941;28;20455;-52
2021/12/11 02:22:47;;;;;;;0.30;0.20;;;;;;;5.50;100.00;94748.38;5113240;28;20510;-52
2021/12/11 02:25:18;;;;;;;0.30;0.20;;;;;;;5.57;100.00;94751.59;5113482;28;20446;-52
2021/12/11 02:27:52;;;;;;;0.73;0.73;;;;;;;5.53;100.00;94755.78;5113558;28;20464;-52
2021/12/11 02:30:24;;;;;;;0.30;0.20;;;;;;;5.38;100.00;94758.28;5113517;28;20464;-52
2021/12/11 02:32:57;;;;;;;0.40;0.30;;;;;;;5.04;100.00;94731.44;5113411;28;20859;-53
2021/12/11 02:35:33;;;;;;;2.30;0.50;;;;;;;4.84;100.00;94734.66;5113449;28;20448;-53
2021/12/11 02:38:10;;;;;;;0.40;0.30;;;;;;;5.19;100.00;94749.97;5113149;28;20459;-53
2021/12/11 02:40:43;;;;;;;0.30;0.20;;;;;;;5.30;100.00;94741.13;5113016;28;20427;-53
2021/12/11 02:43:16;;;;;;;0.40;0.30;;;;;;;5.43;100.00;94734.66;5112905;28;20516;-53
2021/12/11 02:45:48;;;;;;;0.30;0.20;;;;;;;5.35;100.00;94728.03;5112596;28;20463;-52
2021/12/11 02:48:23;;;;;;;0.30;0.20;;;;;;;5.66;100.00;94721.97;5112983;27;20427;-53
2021/12/11 02:50:59;;;;;;;0.30;0.20;;;;;;;5.74;100.00;94718.06;5112485;28;20431;-52
2021/12/11 02:53:36;;;;;;;0.30;0.20;;;;;;;5.38;100.00;94669.72;5113223;28;20470;-51
2021/12/11 02:56:12;;;;;;;0.70;0.63;;;;;;;5.86;100.00;94726.59;5112666;28;20454;-52
2021/12/11 02:58:44;;;;;;;0.40;0.30;;;;;;;5.58;100.00;94725.06;5112762;28;20463;-51
2021/12/11 03:01:22;;;;;;;0.30;0.20;;;;;;;5.58;100.00;94716.38;5112991;28;20426;-51
2021/12/11 03:03:57;;;;;;;0.30;0.20;;;;;;;5.46;100.00;94732.34;5112627;28;20982;-52
2021/12/11 03:06:34;;;;;;;0.30;0.20;;;;;;;5.52;100.00;94735.78;5112640;28;20514;-52
2021/12/11 03:09:07;;;;;;;0.50;0.50;;;;;;;5.48;100.00;94661.13;5112912;28;20622;-51
2021/12/11 03:11:36;;;;;;;0.40;0.40;;;;;;;5.58;100.00;94705.88;5112811;28;20427;-51
2021/12/11 03:14:08;;;;;;;2.60;1.80;;;;;;;4.67;100.00;94587.00;5112178;28;20459;-52
2021/12/11 03:16:37;;;;;;;1.13;1.13;;;;;;;5.58;100.00;94705.88;5112703;28;20531;-52
2021/12/11 03:19:09;;;;;;;1.33;0.50;;;;;;;5.73;100.00;94704.13;5112486;28;20427;-53
2021/12/11 03:21:38;;;;;;;0.50;0.50;;;;;;;5.88;100.00;94695.56;5112869;28;20439;-52
2021/12/11 03:24:11;;;;;;;0.67;0.67;;;;;;;5.96;100.00;94713.50;5112269;28;20507;-52
2021/12/11 03:26:41;;;;;;;0.50;0.50;;;;;;;5.63;100.00;94693.56;5112821;28;20427;-52
2021/12/11 03:29:10;;;;;;;0.60;0.60;;;;;;;5.51;100.00;94694.78;5112055;28;20461;-53
2021/12/11 03:31:41;;;;;;;0.77;0.77;;;;;;;5.24;100.00;94710.59;5112415;28;20499;-52
2021/12/11 03:34:14;;;;;;;0.60;0.60;;;;;;;4.92;100.00;94699.28;5112376;28;20455;-52
2021/12/11 03:36:43;;;;;;;0.30;0.30;;;;;;;5.05;100.00;94720.69;5112414;28;20994;-53
2021/12/11 03:39:15;;;;;;;1.40;1.30;;;;;;;5.31;100.00;94705.16;5112298;28;20428;-52
2021/12/11 03:41:46;;;;;;;0.80;0.80;;;;;;;5.63;100.00;94704.06;5111711;28;20470;-52
2021/12/11 03:44:15;;;;;;;0.73;0.70;;;;;;;5.46;100.00;94647.44;5112321;28;20551;-52
2021/12/11 03:46:47;;;;;;;0.60;0.57;;;;;;;5.22;100.00;94698.75;5112097;28;20531;-52
2021/12/11 03:49:18;;;;;;;5.37;1.63;;;;;;;4.54;100.00;94670.56;5112515;28;20442;-52
2021/12/11 03:51:49;;;;;;;0.30;0.20;;;;;;;4.25;100.00;94711.97;5112064;28;20926;-52
2021/12/11 03:54:23;;;;;;;0.37;0.27;;;;;;;4.49;100.00;94647.69;5112391;28;20502;-52
2021/12/11 03:56:52;;;;;;;0.30;0.20;;;;;;;5.27;100.00;94707.47;5113154;28;20454;-52
2021/12/11 03:59:20;;;;;;;0.30;0.20;;;;;;;5.34;100.00;94704.66;5116121;28;20447;-53
2021/12/11 04:01:54;;;;;;;0.30;0.30;;;;;;;5.18;100.00;94716.88;5115986;28;20518;-51
2021/12/11 04:04:28;;;;;;;0.30;0.20;;;;;;;5.48;100.00;94716.31;5115908;28;20462;-51
2021/12/11 04:06:58;;;;;;;0.30;0.20;;;;;;;5.74;100.00;94723.34;5115863;28;20456;-51
2021/12/11 04:09:29;;;;;;;0.40;0.37;;;;;;;5.61;100.00;94721.13;5115140;28;20442;-51
2021/12/11 04:11:59;;;;;;;0.30;0.20;;;;;;;5.36;100.00;94724.38;5115558;28;20514;-51
2021/12/11 04:14:30;;;;;;;0.30;0.20;;;;;;;5.49;100.00;94723.94;5115654;27;20479;-51
2021/12/11 04:17:01;;;;;;;0.40;0.30;;;;;;;5.60;100.00;94730.84;5116005;28;20455;-53
2021/12/11 04:19:29;;;;;;;0.30;0.20;;;;;;;5.41;100.00;94727.03;5115612;28;20423;-51
2021/12/11 04:21:58;;;;;;;0.30;0.20;;;;;;;5.41;100.00;94721.00;5115876;28;20852;-51
2021/12/11 04:24:31;;;;;;;0.30;0.20;;;;;;;5.69;100.00;94710.16;5115676;27;20531;-52
2021/12/11 04:27:06;;;;;;;0.57;0.40;;;;;;;5.60;100.00;94703.78;5115899;28;20474;-51
2021/12/11 04:29:35;;;;;;;0.30;0.20;;;;;;;4.84;100.00;94579.78;5115436;28;20466;-52
2021/12/11 04:32:05;;;;;;;0.50;0.50;;;;;;;5.31;100.00;94652.59;5115337;28;20431;-52
2021/12/11 04:34:34;;;;;;;0.30;0.20;;;;;;;5.70;100.00;94701.22;5115228;28;20911;-52
2021/12/11 04:37:11;;;;;;;0.50;0.40;;;;;;;5.64;100.00;94687.22;5115312;27;20471;-52
2021/12/11 04:39:44;;;;;;;0.30;0.20;;;;;;;5.86;100.00;94702.13;5115438;28;20419;-52
2021/12/11 04:42:20;;;;;;;0.30;0.20;;;;;;;5.79;100.00;94702.34;5115233;28;20430;-53
2021/12/11 04:44:49;;;;;;;0.30;0.20;;;;;;;5.67;100.00;94696.44;5115229;28;20475;-52
2021/12/11 04:47:31;;;;;;;0.40;0.40;;;;;;;5.34;100.00;94696.78;5115041;28;20523;-53
2021/12/11 04:50:06;;;;;;;0.50;0.40;;;;;;;5.04;100.00;94692.03;5114819;28;20435;-52
2021/12/11 04:52:46;;;;;;;0.67;0.60;;;;;;;5.30;100.00;94719.31;5115362;27;20481;-53
2021/12/11 04:55:29;;;;;;;0.87;0.87;;;;;;;5.66;100.00;94694.88;5114866;28;20477;-53
2021/12/11 04:58:22;;;;;;;0.30;0.30;;;;;;;5.70;100.00;94682.81;5114840;28;20467;-53
2021/12/11 05:01:02;;;;;;;0.40;0.30;;;;;;;5.97;100.00;94688.78;5115348;28;20435;-52
2021/12/11 05:06:31;;;;;;;0.30;0.30;;;;;;;5.92;100.00;94680.09;5112729;28;20504;-52
2021/12/11 05:09:20;;;;;;;0.87;0.87;;;;;;;5.91;100.00;94678.50;5114542;28;20525;-53
2021/12/11 05:11:56;;;;;;;0.50;0.40;;;;;;;5.84;100.00;94683.97;5114804;28;20435;-52
2021/12/11 05:14:26;;;;;;;0.53;0.53;;;;;;;5.82;100.00;94674.75;5114346;28;20553;-52
2021/12/11 05:16:54;;;;;;;1.10;1.10;;;;;;;5.72;100.00;94675.44;5114520;27;20982;-53
2021/12/11 05:19:23;;;;;;;0.30;0.20;;;;;;;5.65;100.00;94688.03;5114731;28;20803;-52
2021/12/11 05:21:51;;;;;;;0.43;0.43;;;;;;;5.88;100.00;94674.53;5114373;28;20460;-52
2021/12/11 05:24:20;;;;;;;1.07;1.07;;;;;;;5.96;100.00;94686.41;5114594;28;20888;-52
2021/12/11 05:26:51;;;;;;;0.40;0.30;;;;;;;5.60;100.00;94688.00;5114015;28;20590;-53
2021/12/11 05:29:20;;;;;;;0.30;0.20;;;;;;;5.90;100.00;94695.31;5114601;28;20428;-53
2021/12/11 05:31:49;;;;;;;0.40;0.40;;;;;;;5.92;100.00;94674.81;5114021;28;20516;-53
2021/12/11 05:34:20;;;;;;;0.50;0.50;;;;;;;6.13;100.00;94697.53;5113758;28;20424;-53
2021/12/11 05:36:50;;;;;;;0.30;0.20;;;;;;;5.96;100.00;94702.19;5113769;27;20455;-53
2021/12/11 05:39:20;;;;;;;0.50;0.40;;;;;;;6.04;100.00;94699.88;5113678;28;20467;-52
2021/12/11 05:41:51;;;;;;;0.40;0.37;;;;;;;5.84;100.00;94694.47;5113886;27;20460;-52
2021/12/11 05:44:22;;;;;;;0.30;0.30;;;;;;;5.49;100.00;94702.13;5113767;28;20459;-52
2021/12/11 05:46:51;;;;;;;0.97;0.97;;;;;;;5.72;100.00;94707.00;5113820;28;20523;-52
2021/12/11 05:49:20;;;;;;;1.03;1.03;;;;;;;6.02;100.00;94714.31;5113801;28;20929;-53
2021/12/11 05:51:50;;;;;;;0.30;0.20;;;;;;;5.53;100.00;94688.22;5113697;28;20486;-52
2021/12/11 05:54:23;;;;;;;0.87;0.87;;;;;;;5.93;100.00;94698.22;5113739;28;20451;-52
2021/12/11 05:56:57;;;;;;;2.67;0.50;;;;;;;6.29;100.00;94697.34;5112869;27;20929;-53
2021/12/11 05:59:25;;;;;;;0.70;0.67;;;;;;;6.53;100.00;94687.16;5113841;28;20459;-53
2021/12/11 06:01:59;;;;;;;2.03;1.00;;;;;;;5.95;100.00;94677.72;5113737;27;20865;-53
2021/12/11 06:04:31;;;;;;;0.50;0.50;;;;;;;5.88;100.00;94682.41;5113662;28;20486;-53
2021/12/11 06:07:01;;;;;;;1.30;1.30;;;;;;;6.01;100.00;94678.53;5113434;28;20477;-53
2021/12/11 06:09:30;;;;;;;0.43;0.40;;;;;;;6.58;100.00;94671.38;5113295;28;20480;-53
2021/12/11 06:12:05;;;;;;;0.30;0.20;;;;;;;6.47;100.00;94666.34;5113247;28;20435;-52
2021/12/11 06:14:34;;;;;;;2.13;0.87;;;;;;;6.39;100.00;94671.06;5113290;28;20490;-52
2021/12/11 06:17:06;;;;;;;1.23;1.13;;;;;;;6.43;100.00;94657.38;5113121;28;21005;-52
2021/12/11 06:19:35;;;;;;;5.50;1.27;;;;;;;5.91;100.00;94631.94;5112395;28;20913;-52
2021/12/11 06:22:04;;;;;;;1.37;1.37;;;;;;;6.26;100.00;94686.53;5113415;28;20420;-53
2021/12/11 06:24:32;;;;;;;4.13;2.03;;;;;;;6.05;100.00;94680.41;5113069;28;20507;-52
2021/12/11 06:27:02;;;;;;;0.80;0.80;;;;;;;6.11;100.00;94681.22;5113278;28;20419;-52
2021/12/11 06:29:31;;;;;;;2.83;2.37;;;;;;;6.33;100.00;94673.94;5112749;28;20518;-52
2021/12/11 06:31:59;;;;;;;0.77;0.77;;;;;;;6.18;100.00;94619.41;5112555;28;20947;-52
2021/12/11 06:34:28;;;;;;;1.90;1.80;;;;;;;6.65;100.00;94677.22;5111897;28;20427;-52
2021/12/11 06:36:56;;;;;;;4.10;2.33;;;;;;;6.06;100.00;94702.25;5112379;28;20993;-52
2021/12/11 06:39:26;;;;;;;2.53;1.73;;;;;;;5.67;100.00;94694.63;5112792;28;20467;-52
2021/12/11 06:41:58;;;;;;;2.67;2.57;;;;;;;5.71;100.00;94689.66;5112750;28;20459;-52
2021/12/11 06:44:28;;;;;;;2.20;1.80;;;;;;;5.60;100.00;94693.25;5112931;28;20471;-52
2021/12/11 06:46:58;;;;;;;3.83;3.73;;;;;;;6.07;100.00;94695.94;5112748;28;20970;-52
2021/12/11 06:49:28;;;;;;;1.13;1.03;;;;;;;6.24;100.00;94691.28;5112508;28;20992;-52
2021/12/11 06:51:57;;;;;;;2.30;0.77;;;;;;;5.83;100.00;94652.63;5112788;28;20507;-52
2021/12/11 06:54:26;;;;;;;0.57;0.57;;;;;;;5.11;100.00;94703.13;5112564;28;20978;-52
2021/12/11 06:56:55;;;;;;;0.80;0.80;;;;;;;4.88;100.00;94712.09;5112490;28;20431;-51
2021/12/11 06:59:23;;;;;;;3.27;2.00;;;;;;;4.77;100.00;94672.91;5111632;28;20428;-52
2021/12/11 07:01:54;;;;;;;4.03;3.80;;;;;;;5.14;100.00;94710.50;5112783;28;20478;-52
2021/12/11 07:04:23;;;;;;;1.80;1.70;;;;;;;5.14;100.00;94695.56;5112668;27;20467;-52
2021/12/11 07:06:54;;;;;;;4.13;0.90;;;;;;;5.10;100.00;94672.66;5112387;28;20462;-53
2021/12/11 07:09:24;;;;;;;2.90;2.80;;;;;;;5.06;100.00;94682.88;5112100;28;20955;-53
2021/12/11 07:11:55;;;;;;;0.50;0.50;;;;;;;5.31;100.00;94627.13;5111907;28;20427;-52
2021/12/11 07:14:26;;;;;;;1.83;1.50;;;;;;;5.35;100.00;94667.59;5111573;28;20478;-52
2021/12/11 07:16:56;;;;;;;2.20;2.20;;;;;;;5.29;100.00;94623.16;5112246;28;20537;-52
2021/12/11 07:19:25;;;;;;;2.97;2.70;;;;;;;5.93;100.00;94668.50;5111952;28;20794;-53
2021/12/11 07:21:55;;;;;;;2.77;2.57;;;;;;;6.28;100.00;94658.13;5112248;28;20459;-53
2021/12/11 07:24:30;;;;;;;0.50;0.50;;;;;;;5.95;100.00;94656.69;5111857;28;20455;-54
2021/12/11 07:27:02;;;;;;;0.40;0.40;;;;;;;5.87;100.00;94672.16;5111922;28;20460;-52
2021/12/11 07:29:33;;;;;;;0.57;0.57;;;;;;;5.73;100.00;94663.91;5112100;28;20469;-52
2021/12/11 07:32:04;;;;;;;0.57;0.53;;;;;;;4.68;100.00;94570.19;5114924;28;20521;-53
2021/12/11 07:34:33;;;;;;;0.70;0.70;;;;;;;5.04;100.00;94668.41;5116307;28;20488;-53
2021/12/11 07:37:02;;;;;;;1.50;1.40;;;;;;;5.56;100.00;94674.59;5116486;28;20458;-52
2021/12/11 07:39:31;;;;;;;2.30;2.20;;;;;;;5.75;100.00;94670.50;5116053;28;20435;-53
2021/12/11 07:42:00;;;;;;;0.90;0.90;;;;;;;5.42;100.00;94662.13;5115990;28;20965;-53
2021/12/11 07:44:29;;;;;;;1.57;1.47;;;;;;;5.34;100.00;94681.00;5116034;28;20517;-53
2021/12/11 07:46:59;;;;;;;2.10;2.00;;;;;;;5.05;100.00;94678.69;5115709;28;20466;-53
2021/12/11 07:49:30;;;;;;;4.63;1.50;;;;;;;4.67;100.00;94665.72;5115379;27;20431;-53
2021/12/11 07:51:59;;;;;;;0.40;0.30;;;;;;;4.93;100.00;94682.50;5115158;28;20458;-52
2021/12/11 07:54:28;;;;;;;2.07;1.97;;;;;;;5.32;100.00;94664.69;5115554;28;20432;-53
2021/12/11 07:56:56;;;;;;;0.30;0.20;;;;;;;5.49;100.00;94660.84;5115420;28;20480;-53
2021/12/11 07:59:24;;;;;;;0.30;0.20;;;;;;;5.08;100.00;94607.25;5115434;28;20439;-53
2021/12/11 08:01:54;;;;;;;0.30;0.20;;;;;;;5.72;100.00;94655.22;5115245;28;20424;-52
2021/12/11 08:04:24;;;;;;;0.30;0.20;;;;;;;6.24;100.00;94652.59;5115200;28;20438;-53
2021/12/11 08:06:54;;;;;;;0.30;0.20;;;;;;;6.37;100.00;94632.91;5115144;28;20473;-53
2021/12/11 08:09:24;;;;;;;0.40;0.30;;;;;;;5.88;100.00;94608.00;5114482;28;20518;-53
2021/12/11 08:11:54;;;;;;;0.37;0.30;;;;;;;6.16;100.00;94639.94;5114896;28;20420;-54
2021/12/11 08:14:24;;;;;;;0.37;0.27;;;;;;;6.17;100.00;94638.09;5114814;28;20455;-53
2021/12/11 08:16:57;;;;;;;4.27;0.40;;;;;;;6.32;100.00;94638.91;5114935;27;20990;-54
2021/12/11 08:19:27;;;;;;;0.30;0.30;;;;;;;6.48;100.00;94639.00;5114799;28;20431;-53
2021/12/11 08:22:00;;;;;;;0.70;0.70;;;;;;;5.77;100.00;94481.72;5114067;28;20423;-53
2021/12/11 08:24:29;;;;;;;0.30;0.30;;;;;;;6.81;100.00;94620.06;5115233;27;20514;-54
2021/12/11 08:27:01;;;;;;;2.50;0.30;;;;;;;7.03;100.00;94612.72;5115130;28;20451;-53
2021/12/11 08:29:30;;;;;;;0.40;0.30;;;;;;;6.78;100.00;94612.72;5115066;28;20451;-53
2021/12/11 08:31:59;;;;;;;16.63;3.67;;;;;;;6.68;100.00;94624.00;5114572;28;21021;-53
2021/12/11 08:34:28;;;;;;;2.73;1.63;;;;;;;6.70;100.00;94608.75;5114826;28;20434;-54
2021/12/11 08:36:59;;;;;;;2.47;0.90;;;;;;;6.85;100.00;94623.78;5114480;28;20813;-53
2021/12/11 08:39:28;;;;;;;1.90;1.80;;;;;;;6.38;100.00;94535.25;5114383;28;20415;-54
2021/12/11 08:42:00;;;;;;;0.80;0.80;;;;;;;6.83;100.00;94602.94;5114733;28;20518;-53
2021/12/11 08:44:34;;;;;;;4.67;3.50;;;;;;;6.55;100.00;94581.63;5114236;28;20423;-54
2021/12/11 08:47:07;;;;;;;3.53;3.23;;;;;;;6.95;100.00;94584.25;5114156;27;20475;-53
2021/12/11 08:49:39;;;;;;;1.30;1.30;;;;;;;7.46;100.00;94608.72;5114435;28;20445;-53
2021/12/11 08:52:13;;;;;;;1.10;1.10;;;;;;;7.74;100.00;94575.69;5114140;28;20481;-52
2021/12/11 08:54:42;;;;;;;2.20;2.10;;;;;;;7.63;100.00;94591.53;5114456;28;20443;-53
2021/12/11 08:57:13;;;;;;;2.13;2.07;;;;;;;7.67;100.00;94584.66;5114409;28;20514;-52
2021/12/11 08:59:45;;;;;;;19.30;4.27;;;;;;;7.65;100.00;94581.50;5114201;28;20908;-52
2021/12/11 09:02:16;;;;;;;4.33;4.03;;;;;;;7.73;100.00;94582.00;5114221;28;20431;-54
2021/12/11 09:04:49;;;;;;;8.33;3.87;;;;;;;8.04;100.00;94575.56;5113381;28;20435;-52
2021/12/11 09:07:25;;;;;;;5.30;5.10;;;;;;;7.54;100.00;94523.78;5113935;28;20432;-52
2021/12/11 09:09:57;;;;;;;17.20;5.17;;;;;;;7.94;100.00;94567.69;5114180;28;20484;-53
2021/12/11 09:12:31;;;;;;;2.67;2.47;;;;;;;8.09;100.00;94549.16;5113297;28;20864;-52
2021/12/11 09:15:07;;;;;;;4.40;2.97;;;;;;;7.85;100.00;94556.09;5113514;28;20502;-53
2021/12/11 09:17:39;;;;;;;7.73;2.87;;;;;;;7.78;100.00;94542.44;5113958;28;20423;-53
2021/12/11 09:20:12;;;;;;;6.63;5.17;;;;;;;7.66;100.00;94498.69;5113622;28;20431;-54
2021/12/11 09:22:47;;;;;;;13.40;5.30;;;;;;;8.09;100.00;94512.22;5113710;28;20455;-54
2021/12/11 09:25:20;;;;;;;6.60;6.07;;;;;;;8.33;100.00;94515.78;5114010;28;20443;-53
2021/12/11 09:27:52;;;;;;;11.70;4.37;;;;;;;8.39;100.00;94525.25;5113559;28;20481;-53
2021/12/11 09:30:25;;;;;;;3.80;3.70;;;;;;;8.58;100.00;94518.22;5113575;28;20518;-54
2021/12/11 09:32:58;;;;;;;2.60;2.20;;;;;;;8.38;100.00;94518.38;5113747;28;20470;-52
2021/12/11 09:35:30;;;;;;;1.03;1.03;;;;;;;7.62;100.00;94413.28;5113633;27;20420;-52
2021/12/11 09:38:06;;;;;;;4.87;4.57;;;;;;;8.33;100.00;94513.13;5113231;28;20991;-53
2021/12/11 09:41:19;;;;;;;1.87;1.77;;;;;;;8.01;100.00;94507.50;5113573;28;20427;-54
2021/12/11 09:43:56;;;;;;;1.87;1.10;;;;;;;8.14;100.00;94506.91;5094598;28;20798;-54
2021/12/11 09:46:27;;;;;;;4.60;2.23;;;;;;;8.02;100.00;94503.81;5113024;28;20471;-52
2021/12/11 09:48:57;;;;;;;2.73;2.63;;;;;;;8.09;100.00;94489.25;5113188;28;20423;-53
2021/12/11 09:51:30;;;;;;;1.80;1.60;;;;;;;7.94;100.00;94496.47;5113835;28;20460;-54
2021/12/11 09:54:07;;;;;;;2.67;2.47;;;;;;;8.07;100.00;94483.44;5112582;28;20488;-53
2021/12/11 09:56:40;;;;;;;0.80;0.80;;;;;;;8.39;100.00;94487.50;5113449;28;20469;-52
2021/12/11 09:59:15;;;;;;;3.40;2.93;;;;;;;8.32;100.00;94471.97;5113274;28;20459;-52
2021/12/11 10:01:49;;;;;;;4.60;4.37;;;;;;;8.38;100.00;94478.78;5112866;28;20891;-53
2021/12/11 10:04:22;;;;;;;2.80;2.73;;;;;;;8.47;100.00;94469.22;5113446;28;20499;-53
2021/12/11 10:07:23;;;;;;;2.80;2.37;;;;;;;8.60;100.00;94457.22;5112858;28;20470;-53
2021/12/11 10:09:55;;;;;;;5.20;4.90;;;;;;;8.55;100.00;94438.78;5113607;28;20506;-54
2021/12/11 10:12:26;;;;;;;1.00;1.00;;;;;;;8.56;100.00;94433.22;5113275;28;20427;-53
2021/12/11 10:15:00;;;;;;;3.27;3.17;;;;;;;8.71;100.00;94442.84;5113127;28;20472;-53
2021/12/11 10:17:36;;;;;;;3.43;1.63;;;;;;;8.41;100.00;94385.03;5113059;27;20840;-53
2021/12/11 10:20:10;;;;;;;6.33;3.40;;;;;;;8.48;100.00;94427.72;5112560;28;21170;-53
2021/12/11 10:22:41;;;;;;;2.07;1.97;;;;;;;8.38;100.00;94446.31;5113421;28;20435;-52
2021/12/11 10:25:15;;;;;;;5.73;5.33;;;;;;;8.72;100.00;94441.78;5113067;28;20411;-52
2021/12/11 10:27:44;;;;;;;2.63;2.43;;;;;;;8.56;100.00;94424.50;5112847;28;20839;-52
2021/12/11 10:30:19;;;;;;;9.57;4.77;;;;;;;8.62;100.00;94444.53;5112901;28;20458;-52
2021/12/11 10:32:48;;;;;;;13.53;6.83;;;;;;;8.25;100.00;94447.69;5113069;28;20488;-53
2021/12/11 10:35:20;;;;;;;9.27;8.37;;;;;;;8.63;100.00;94430.25;5112820;28;20419;-53
2021/12/11 10:37:52;;;;;;;5.87;5.43;;;;;;;8.63;100.00;94422.31;5113022;28;20913;-52
2021/12/11 10:40:25;;;;;;;11.20;5.40;;;;;;;8.60;100.00;94423.66;5112810;28;20465;-53
2021/12/11 10:42:57;;;;;;;4.20;3.87;;;;;;;8.26;100.00;94430.78;5112775;28;20478;-53
2021/12/11 10:45:29;;;;;;;6.47;4.47;;;;;;;8.43;100.00;94406.66;5112601;28;20431;-54
2021/12/11 10:48:00;;;;;;;9.40;9.00;;;;;;;8.40;100.00;94420.44;5112488;28;20510;-53
2021/12/11 10:50:33;;;;;;;5.13;4.80;;;;;;;8.51;100.00;94401.56;5112797;28;20864;-54
2021/12/11 10:53:07;;;;;;;5.17;4.70;;;;;;;8.58;100.00;94396.75;5112862;28;20431;-53
2021/12/11 10:55:37;;;;;;;4.97;4.80;;;;;;;8.38;100.00;94391.66;5112513;28;20471;-53
2021/12/11 10:58:09;;;;;;;7.30;5.07;;;;;;;8.51;100.00;94382.28;5112441;28;20434;-53
2021/12/11 11:00:43;;;;;;;4.37;3.83;;;;;;;7.99;100.00;94386.41;5112498;28;20459;-53
2021/12/11 11:03:12;;;;;;;5.00;4.80;;;;;;;8.33;100.00;94375.84;5112312;28;20962;-53
2021/12/11 11:05:41;;;;;;;2.00;2.00;;;;;;;8.17;100.00;94363.84;5112070;28;20424;-54
2021/12/11 11:08:10;;;;;;;1.07;1.07;;;;;;;8.38;100.00;94348.63;5112267;28;20539;-53
2021/12/11 11:10:43;;;;;;;3.63;3.43;;;;;;;7.73;100.00;94353.34;5112288;28;20496;-53
2021/12/11 11:13:16;;;;;;;0.80;0.80;;;;;;;8.22;100.00;94330.25;5111975;28;20459;-52
2021/12/11 11:15:45;;;;;;;4.13;3.00;;;;;;;8.53;100.00;94340.53;5111842;28;20515;-52
2021/12/11 11:18:19;;;;;;;0.50;0.50;;;;;;;8.73;100.00;94341.13;5112157;28;20463;-52
2021/12/11 11:20:53;;;;;;;0.93;0.93;;;;;;;8.49;100.00;94292.00;5112168;28;20432;-52
2021/12/11 11:23:22;;;;;;;3.37;2.00;;;;;;;8.41;100.00;94268.84;5111669;28;20478;-52
2021/12/11 11:25:54;;;;;;;14.63;1.53;;;;;;;8.76;100.00;94327.38;5111411;28;20518;-52
2021/12/11 11:28:24;;;;;;;7.63;4.27;;;;;;;7.97;100.00;94296.16;5111819;28;20506;-53
2021/12/11 11:30:59;;;;;;;8.03;5.73;;;;;;;8.37;100.00;94336.50;5111698;28;20930;-53
2021/12/11 11:33:29;;;;;;;1.10;0.90;;;;;;;8.38;100.00;94330.13;5112199;28;20784;-52
2021/12/11 11:36:00;;;;;;;1.07;1.07;;;;;;;8.32;100.00;94266.84;5112022;28;20427;-53
2021/12/11 11:38:34;;;;;;;1.47;1.47;;;;;;;8.85;100.00;94295.84;5111876;28;20463;-53
2021/12/11 11:41:08;;;;;;;7.10;4.13;;;;;;;8.64;100.00;94295.28;5111640;28;20458;-53
2021/12/11 11:43:37;;;;;;;1.50;1.50;;;;;;;8.39;100.00;94297.41;5111474;28;20415;-52
2021/12/11 11:46:08;;;;;;;3.33;3.13;;;;;;;8.21;100.00;94301.50;5111803;28;21000;-52
2021/12/11 11:48:39;;;;;;;2.70;1.90;;;;;;;8.23;100.00;94297.53;5111789;28;20900;-52
2021/12/11 11:51:15;;;;;;;1.87;1.73;;;;;;;8.21;100.00;94290.94;5111791;28;20459;-52
2021/12/11 11:53:44;;;;;;;3.53;3.10;;;;;;;7.43;100.00;94209.34;5111545;28;20467;-53
2021/12/11 11:56:16;;;;;;;2.90;2.70;;;;;;;7.36;100.00;94243.13;5111684;28;20473;-53
2021/12/11 11:58:45;;;;;;;0.73;0.73;;;;;;;7.70;100.00;94293.25;5112225;28;20423;-52
2021/12/11 12:01:20;;;;;;;1.20;1.20;;;;;;;7.67;100.00;94302.50;5111578;28;20431;-53